Sheridan County Airport
KSHR : rendu visible

Aérodrome :











RETROUVEZ-NOUS SUR...

 
LOGIN :

S'inscrire | Disclaimer

   EN    FR    IT 

 









Légende :    VFR   VFR Marginal   IFR   IFR Intensif   IFR Très Intensif
Visi : 
Plafond : 
>= 8 km
>= 3000ft
5 à 8 km
1000 à 3000 ft
1500m à 5 km
500 à 1000 ft
800 à 1500m
200 à 500 ft
< 800m
< 200 ft
Symboles :   Orages  Brouillard  Fortes neiges  Fortes précipitations  Vent > 20 kt






- Altitude de l'aérodrome : 4021 ft
- Code IATA : SHR


KSHR - Sheridan County

DERNIER METAR :
  • 121053Z AUTO 34008KT 10SM CLR M13/M17 A3002 RMK AO2 SLP236 T11331172 $

METARs EXPIRÉS :
  • 120953Z AUTO 00000KT 10SM CLR M17/M19 A3004 RMK AO2 SLP250 T11671194 $
  • 120853Z AUTO 00000KT 10SM CLR M14/M18 A3008 RMK AO2 SLP257 I3000 T11441178 58032 $

TAF KSHR
Valide du 12 à 06h jusqu'au 13 à 06h UTC


120523Z 1206/1306 VRB03KT P6SM FEW250
FM122100 VRB04KT P6SM BKN080



MET'MAP, la Météo Aéronautique d'un coup d'oeil ! - Copyright ORBIFLY Décembre 2007 - Disclaimer

ORBIFLY MET'MAP TEAM :

Programmation & Développement : Alexandra Zaïnal
Conception & Développement : Baudouin d'Aumeries
Co-Programmation & Développement : Marc-Olivier Méhu
Soutien technique & logistique : Manuel Goepfert

Contact : metmap@orbifly.com




SOURCES & CREDITS :

   NOAA       Earth
Advisory